createdAt,value
2022-08-05T00:01:28.517Z,100.00
2022-08-05T00:03:57.194Z,100.00
2022-08-05T00:06:29.047Z,100.00
2022-08-05T00:09:00.508Z,100.00
2022-08-05T00:11:34.808Z,100.00
2022-08-05T00:14:04.374Z,100.00
2022-08-05T00:16:52.073Z,100.00
2022-08-05T00:19:22.691Z,100.00
2022-08-05T00:21:50.093Z,100.00
2022-08-05T00:24:24.125Z,100.00
2022-08-05T00:26:53.057Z,100.00
2022-08-05T00:29:22.624Z,100.00
2022-08-05T00:32:11.025Z,100.00
2022-08-05T00:34:56.128Z,100.00
2022-08-05T00:37:26.942Z,100.00
2022-08-05T00:40:13.507Z,100.00
2022-08-05T00:42:44.441Z,100.00
2022-08-05T00:45:15.997Z,100.00
2022-08-05T00:47:57.247Z,100.00
2022-08-05T00:50:29.317Z,100.00
2022-08-05T00:52:55.917Z,100.00
2022-08-05T00:55:23.399Z,100.00
2022-08-05T00:58:11.284Z,100.00
2022-08-05T01:00:39.586Z,100.00
2022-08-05T01:03:07.614Z,100.00
2022-08-05T01:05:35.191Z,100.00
2022-08-05T01:08:40.389Z,100.00
2022-08-05T01:10:52.873Z,100.00
2022-08-05T01:13:58.042Z,100.00
2022-08-05T01:16:48.487Z,100.00
2022-08-05T01:19:56.621Z,100.00
2022-08-05T01:22:43.104Z,100.00
2022-08-05T01:25:22.276Z,100.00
2022-08-05T01:28:14.901Z,100.00
2022-08-05T01:30:55.485Z,100.00
2022-08-05T01:33:25.424Z,100.00
2022-08-05T01:35:54.659Z,100.00
2022-08-05T01:38:29.061Z,100.00
2022-08-05T01:41:01.518Z,100.00
2022-08-05T01:43:28.825Z,100.00
2022-08-05T01:45:56.406Z,100.00
2022-08-05T01:48:26.109Z,100.00
2022-08-05T01:50:55.404Z,100.00
2022-08-05T01:53:54.734Z,100.00
2022-08-05T01:56:11.484Z,100.00
2022-08-05T01:58:41.025Z,100.00
2022-08-05T02:01:13.369Z,100.00
2022-08-05T02:03:44.421Z,100.00
2022-08-05T02:06:37.214Z,100.00
2022-08-05T02:08:59.230Z,100.00
2022-08-05T02:11:32.795Z,100.00
2022-08-05T02:14:08.325Z,100.00
2022-08-05T02:16:45.812Z,100.00
2022-08-05T02:19:25.631Z,100.00
2022-08-05T02:22:08.794Z,100.00
2022-08-05T02:24:38.554Z,100.00
2022-08-05T02:27:10.089Z,100.00
2022-08-05T02:29:59.849Z,100.00
2022-08-05T02:32:29.369Z,100.00
2022-08-05T02:35:02.002Z,100.00
2022-08-05T02:37:42.134Z,100.00
2022-08-05T02:40:16.922Z,100.00
2022-08-05T02:42:44.838Z,100.00
2022-08-05T02:45:23.865Z,100.00
2022-08-05T02:48:06.860Z,100.00
2022-08-05T02:50:43.811Z,100.00
2022-08-05T02:53:12.035Z,100.00
2022-08-05T02:55:53.982Z,100.00
2022-08-05T02:58:27.243Z,100.00
2022-08-05T03:01:00.367Z,100.00
2022-08-05T03:03:34.207Z,100.00
2022-08-05T03:06:54.728Z,100.00
2022-08-05T03:09:04.071Z,100.00
2022-08-05T03:11:56.985Z,100.00
2022-08-05T03:14:17.448Z,100.00
2022-08-05T03:16:44.075Z,100.00
2022-08-05T03:19:12.787Z,100.00
2022-08-05T03:21:49.358Z,100.00
2022-08-05T03:24:18.544Z,100.00
2022-08-05T03:26:56.521Z,100.00
2022-08-05T03:29:24.074Z,100.00
2022-08-05T03:31:57.219Z,100.00
2022-08-05T03:34:27.580Z,100.00
2022-08-05T03:36:55.385Z,100.00
2022-08-05T03:39:27.040Z,100.00
2022-08-05T03:41:58.001Z,100.00
2022-08-05T03:44:25.193Z,100.00
2022-08-05T03:46:55.973Z,100.00
2022-08-05T03:49:24.254Z,100.00
2022-08-05T03:52:37.212Z,100.00
2022-08-05T03:55:49.853Z,100.00
2022-08-05T03:57:45.575Z,100.00
2022-08-05T04:00:15.632Z,100.00
2022-08-05T04:02:58.666Z,100.00
2022-08-05T04:05:34.674Z,100.00
2022-08-05T04:08:14.837Z,100.00
2022-08-05T04:10:54.764Z,100.00
2022-08-05T04:13:21.971Z,100.00
2022-08-05T04:16:02.763Z,100.00
2022-08-05T04:18:30.314Z,100.00
2022-08-05T04:20:58.069Z,100.00
2022-08-05T04:24:05.569Z,100.00
2022-08-05T04:26:17.280Z,100.00
2022-08-05T04:28:50.811Z,100.00
2022-08-05T04:31:18.609Z,100.00
2022-08-05T04:33:54.346Z,100.00
2022-08-05T04:36:45.729Z,100.00
2022-08-05T04:39:13.546Z,100.00
2022-08-05T04:41:40.202Z,100.00
2022-08-05T04:44:08.906Z,100.00
2022-08-05T04:46:36.609Z,100.00
2022-08-05T04:49:03.263Z,100.00
2022-08-05T04:51:30.547Z,100.00
2022-08-05T04:53:57.567Z,100.00
2022-08-05T04:56:34.767Z,100.00
2022-08-05T04:59:13.963Z,100.00
2022-08-05T05:02:06.786Z,100.00
2022-08-05T05:04:38.697Z,100.00
2022-08-05T05:07:16.073Z,100.00
2022-08-05T05:09:44.936Z,100.00
2022-08-05T05:12:11.812Z,100.00
2022-08-05T05:14:38.522Z,100.00
2022-08-05T05:17:19.889Z,100.00
2022-08-05T05:19:50.375Z,100.00
2022-08-05T05:22:22.945Z,100.00
2022-08-05T05:24:56.702Z,100.00
2022-08-05T05:27:44.395Z,100.00
2022-08-05T05:30:29.213Z,100.00
2022-08-05T05:33:00.168Z,100.00
2022-08-05T05:35:29.135Z,100.00
2022-08-05T05:38:03.088Z,100.00
2022-08-05T05:40:32.483Z,100.00
2022-08-05T05:43:02.166Z,100.00
2022-08-05T05:45:29.226Z,97.12
2022-08-05T05:48:06.949Z,92.90
2022-08-05T05:50:44.367Z,90.73
2022-08-05T05:53:21.084Z,89.71
2022-08-05T05:55:51.493Z,91.44
2022-08-05T05:58:31.951Z,88.50
2022-08-05T06:01:12.608Z,83.23
2022-08-05T06:04:00.522Z,80.19
2022-08-05T06:06:31.386Z,78.57
2022-08-05T06:09:01.278Z,78.85
2022-08-05T06:11:29.926Z,77.29
2022-08-05T06:13:57.004Z,77.00
2022-08-05T06:16:30.385Z,74.27
2022-08-05T06:19:00.286Z,73.02
2022-08-05T06:21:35.945Z,71.33
2022-08-05T06:24:07.733Z,70.49
2022-08-05T06:26:38.391Z,69.55
2022-08-05T06:29:06.442Z,67.41
2022-08-05T06:31:51.947Z,66.72
2022-08-05T06:34:19.969Z,64.91
2022-08-05T06:36:57.238Z,64.89
2022-08-05T06:39:26.867Z,65.17
2022-08-05T06:41:55.360Z,63.54
2022-08-05T06:44:23.328Z,63.24
2022-08-05T06:46:50.890Z,63.42
2022-08-05T06:49:18.964Z,63.01
2022-08-05T06:51:48.268Z,63.80
2022-08-05T06:54:19.145Z,63.40
2022-08-05T06:56:54.631Z,60.50
2022-08-05T06:59:38.914Z,63.53
2022-08-05T07:02:09.274Z,61.23
2022-08-05T07:04:36.435Z,60.14
2022-08-05T07:07:03.506Z,58.63
2022-08-05T07:09:37.487Z,57.99
2022-08-05T07:12:07.704Z,57.57
2022-08-05T07:14:53.987Z,56.62
2022-08-05T07:18:01.085Z,55.83
2022-08-05T07:20:32.322Z,56.76
2022-08-05T07:22:55.028Z,56.65
2022-08-05T07:25:55.229Z,56.15
2022-08-05T07:28:11.723Z,55.58
2022-08-05T07:30:44.386Z,55.17
2022-08-05T07:33:17.432Z,53.72
2022-08-05T07:36:03.869Z,52.61
2022-08-05T07:38:42.547Z,52.39
2022-08-05T07:42:07.063Z,52.73
2022-08-05T07:43:59.939Z,51.98
2022-08-05T07:46:28.617Z,53.00
2022-08-05T07:49:04.225Z,51.76
2022-08-05T07:51:37.005Z,52.28
2022-08-05T07:54:05.180Z,52.26
2022-08-05T07:57:00.758Z,52.45
2022-08-05T07:59:23.204Z,51.13
2022-08-05T08:01:57.914Z,50.41
2022-08-05T08:04:37.366Z,50.10
2022-08-05T08:07:05.585Z,49.26
2022-08-05T08:09:34.546Z,48.30
2022-08-05T08:12:07.760Z,47.42
2022-08-05T08:14:46.836Z,47.35
2022-08-05T08:17:16.132Z,47.04
2022-08-05T08:20:44.495Z,47.72
2022-08-05T08:22:32.327Z,47.74
2022-08-05T08:25:03.543Z,48.23
2022-08-05T08:27:39.960Z,46.71
2022-08-05T08:30:29.879Z,46.85
2022-08-05T08:33:02.743Z,48.19
2022-08-05T08:35:34.863Z,46.20
2022-08-05T08:38:07.451Z,46.75
2022-08-05T08:40:35.323Z,46.44
2022-08-05T08:45:01.585Z,46.29
2022-08-05T08:45:53.027Z,46.52
2022-08-05T08:48:42.713Z,44.31
2022-08-05T08:51:30.621Z,44.19
2022-08-05T08:53:54.749Z,43.77
2022-08-05T08:56:22.185Z,43.54
2022-08-05T08:58:49.564Z,43.54
2022-08-05T09:01:18.986Z,42.76
2022-08-05T09:03:52.878Z,42.23
2022-08-05T09:06:27.978Z,41.90
2022-08-05T09:09:01.125Z,42.46
2022-08-05T09:11:53.027Z,42.62
2022-08-05T09:14:56.768Z,41.92
2022-08-05T09:17:03.472Z,42.53
2022-08-05T09:19:36.562Z,41.47
2022-08-05T09:22:25.023Z,42.19
2022-08-05T09:25:13.741Z,41.75
2022-08-05T09:28:04.067Z,41.33
2022-08-05T09:30:34.193Z,41.04
2022-08-05T09:33:04.605Z,40.31
2022-08-05T09:35:31.670Z,40.88
2022-08-05T09:38:12.854Z,39.84
2022-08-05T09:40:53.653Z,39.80
2022-08-05T09:43:41.192Z,39.58
2022-08-05T09:46:27.527Z,39.63
2022-08-05T09:49:07.520Z,38.96
2022-08-05T09:51:38.154Z,37.28
2022-08-05T09:54:10.103Z,37.23
2022-08-05T09:56:38.591Z,37.49
2022-08-05T09:59:17.157Z,36.85
2022-08-05T10:01:46.539Z,36.47
2022-08-05T10:04:16.121Z,36.18
2022-08-05T10:06:59.394Z,35.36
2022-08-05T10:09:28.279Z,35.89
2022-08-05T10:12:18.949Z,35.90
2022-08-05T10:15:13.571Z,35.48
2022-08-05T10:17:47.406Z,35.89
2022-08-05T10:20:23.806Z,36.12
2022-08-05T10:22:51.908Z,34.65
2022-08-05T10:25:19.729Z,35.47
2022-08-05T10:28:16.707Z,35.19
2022-08-05T10:31:19.891Z,34.18
2022-08-05T10:33:24.918Z,34.59
2022-08-05T10:36:00.021Z,33.88
2022-08-05T10:38:29.230Z,34.47
2022-08-05T10:41:23.282Z,34.55
2022-08-05T10:44:00.925Z,33.54
2022-08-05T10:46:51.009Z,33.96
2022-08-05T10:49:26.622Z,34.49
2022-08-05T10:52:00.681Z,32.83
2022-08-05T10:54:56.102Z,32.97
2022-08-05T10:57:32.245Z,32.77
2022-08-05T11:00:20.114Z,31.29
2022-08-05T11:03:24.676Z,31.97
2022-08-05T11:06:05.740Z,31.54
2022-08-05T11:08:38.147Z,31.77
2022-08-05T11:11:52.229Z,31.91
2022-08-05T11:14:49.326Z,31.87
2022-08-05T11:17:58.883Z,31.69
2022-08-05T11:20:34.215Z,31.91
2022-08-05T11:23:06.092Z,31.27
2022-08-05T11:26:04.108Z,31.15
2022-08-05T11:28:25.305Z,31.12
2022-08-05T11:31:01.537Z,31.69
2022-08-05T11:33:46.653Z,32.65
2022-08-05T11:36:34.518Z,32.39
2022-08-05T11:39:05.476Z,33.25
2022-08-05T11:41:54.576Z,32.21
2022-08-05T11:44:40.123Z,31.87
2022-08-05T11:47:11.824Z,31.28
2022-08-05T11:49:43.312Z,31.32
2022-08-05T11:52:24.577Z,31.94
2022-08-05T11:54:57.433Z,30.84
2022-08-05T11:58:08.660Z,31.10
2022-08-05T12:00:31.295Z,30.44
2022-08-05T12:02:58.072Z,31.08
2022-08-05T12:05:32.268Z,30.09
2022-08-05T12:08:10.979Z,29.84
2022-08-05T12:10:45.425Z,29.01
2022-08-05T12:13:16.402Z,30.18
2022-08-05T12:15:45.436Z,29.28
2022-08-05T12:18:29.619Z,29.36
2022-08-05T12:21:13.858Z,28.57
2022-08-05T12:24:04.336Z,28.76
2022-08-05T12:26:35.386Z,28.96
2022-08-05T12:29:05.152Z,28.76
2022-08-05T12:31:43.797Z,27.92
2022-08-05T12:34:21.353Z,27.80
2022-08-05T12:36:52.324Z,27.86
2022-08-05T12:39:19.385Z,28.49
2022-08-05T12:41:46.218Z,27.88
2022-08-05T12:44:33.090Z,27.81
2022-08-05T12:47:02.386Z,27.41
2022-08-05T12:50:04.815Z,27.33
2022-08-05T12:52:39.407Z,27.19
2022-08-05T12:55:35.429Z,26.68
2022-08-05T12:58:52.742Z,26.15
2022-08-05T13:02:00.556Z,26.62
2022-08-05T13:03:41.997Z,26.14
2022-08-05T13:06:17.132Z,26.23
2022-08-05T13:08:51.953Z,25.52
2022-08-05T13:11:59.655Z,25.59
2022-08-05T13:14:19.234Z,24.79
2022-08-05T13:16:57.437Z,24.71
2022-08-05T13:19:27.338Z,26.46
2022-08-05T13:22:14.059Z,24.92
2022-08-05T13:24:58.068Z,24.57
2022-08-05T13:27:38.315Z,23.86
2022-08-05T13:30:36.065Z,24.05
2022-08-05T13:32:54.811Z,23.36
2022-08-05T13:35:43.067Z,22.79
2022-08-05T13:38:15.758Z,23.03
2022-08-05T13:40:55.292Z,23.11
2022-08-05T13:43:22.443Z,23.19
2022-08-05T13:45:49.202Z,24.22
2022-08-05T13:48:58.906Z,24.79
2022-08-05T13:51:08.638Z,22.71
2022-08-05T13:53:47.418Z,22.76
2022-08-05T13:56:18.873Z,20.85
2022-08-05T13:58:53.144Z,20.07
2022-08-05T14:01:24.695Z,19.09
2022-08-05T14:04:22.427Z,15.78
2022-08-05T14:06:58.867Z,14.50
2022-08-05T14:09:42.997Z,14.53
2022-08-05T14:12:18.317Z,15.98
2022-08-05T14:14:59.936Z,15.40
2022-08-05T14:17:28.325Z,15.04
2022-08-05T14:19:59.662Z,16.47
2022-08-05T14:22:30.545Z,17.98
2022-08-05T14:25:02.139Z,19.16
2022-08-05T14:27:32.921Z,19.52
2022-08-05T14:29:59.568Z,19.90
2022-08-05T14:32:28.125Z,20.33
2022-08-05T14:34:56.933Z,21.01
2022-08-05T14:37:44.843Z,21.34
2022-08-05T14:40:14.168Z,21.02
2022-08-05T14:42:44.263Z,21.38
2022-08-05T14:45:11.534Z,21.56
2022-08-05T14:48:05.161Z,22.22
2022-08-05T14:50:25.423Z,22.49
2022-08-05T14:52:58.322Z,22.94
2022-08-05T14:55:38.474Z,23.68
2022-08-05T14:58:10.966Z,23.68
2022-08-05T15:00:38.357Z,23.62
2022-08-05T15:03:09.599Z,24.90
2022-08-05T15:06:12.947Z,25.14
2022-08-05T15:08:58.556Z,24.26
2022-08-05T15:11:10.430Z,24.03
2022-08-05T15:13:46.050Z,24.59
2022-08-05T15:16:16.973Z,25.17
2022-08-05T15:18:43.809Z,24.81
2022-08-05T15:21:14.051Z,23.59
2022-08-05T15:23:40.682Z,24.48
2022-08-05T15:26:07.385Z,25.15
2022-08-05T15:28:34.042Z,24.90
2022-08-05T15:31:00.660Z,24.37
2022-08-05T15:34:06.209Z,25.04
2022-08-05T15:36:24.714Z,25.17
2022-08-05T15:41:01.187Z,25.57
2022-08-05T15:41:55.531Z,26.79
2022-08-05T15:44:23.701Z,27.47
2022-08-05T15:46:50.670Z,27.42
2022-08-05T15:49:27.324Z,27.01
2022-08-05T15:52:13.156Z,27.14
2022-08-05T15:54:43.104Z,27.41
2022-08-05T15:57:09.867Z,27.22
2022-08-05T15:59:38.095Z,26.98
2022-08-05T16:02:09.756Z,27.57
2022-08-05T16:04:42.378Z,27.27
2022-08-05T16:07:10.724Z,27.57
2022-08-05T16:09:37.830Z,28.46
2022-08-05T16:12:09.067Z,27.95
2022-08-05T16:14:36.064Z,28.11
2022-08-05T16:17:03.959Z,29.15
2022-08-05T16:20:04.337Z,29.57
2022-08-05T16:22:17.492Z,29.30
2022-08-05T16:24:51.620Z,29.25
2022-08-05T16:27:19.138Z,29.89
2022-08-05T16:29:58.998Z,29.98
2022-08-05T16:32:29.449Z,30.63
2022-08-05T16:34:56.930Z,30.41
2022-08-05T16:38:11.943Z,29.96
2022-08-05T16:40:20.258Z,32.00
2022-08-05T16:42:52.086Z,33.29
2022-08-05T16:46:07.855Z,34.31
2022-08-05T16:48:05.418Z,36.82
2022-08-05T16:50:32.075Z,38.50
2022-08-05T16:53:01.613Z,39.64
2022-08-05T16:55:46.927Z,40.83
2022-08-05T16:58:14.411Z,41.62
2022-08-05T17:00:41.116Z,42.13
2022-08-05T17:03:15.286Z,42.47
2022-08-05T17:05:53.211Z,44.50
2022-08-05T17:08:33.813Z,46.27
2022-08-05T17:11:12.745Z,45.73
2022-08-05T17:13:43.398Z,43.47
2022-08-05T17:16:29.622Z,47.51
2022-08-05T17:18:57.118Z,50.52
2022-08-05T17:21:23.962Z,53.60
2022-08-05T17:24:05.653Z,55.03
2022-08-05T17:26:38.416Z,57.02
2022-08-05T17:29:10.089Z,58.13
2022-08-05T17:31:56.548Z,58.94
2022-08-05T17:34:30.262Z,59.65
2022-08-05T17:37:00.319Z,60.75
2022-08-05T17:39:33.487Z,62.78
2022-08-05T17:42:20.257Z,64.64
2022-08-05T17:44:50.500Z,66.08
2022-08-05T17:47:21.773Z,66.42
2022-08-05T17:50:00.334Z,67.97
2022-08-05T17:52:34.649Z,70.27
2022-08-05T17:55:20.975Z,70.84
2022-08-05T17:57:48.520Z,71.70
2022-08-05T18:00:17.248Z,71.59
2022-08-05T18:02:46.740Z,72.86
2022-08-05T18:05:13.774Z,73.54
2022-08-05T18:07:44.491Z,74.83
2022-08-05T18:10:20.331Z,72.42
2022-08-05T18:12:49.350Z,72.60
2022-08-05T18:15:16.221Z,73.90
2022-08-05T18:17:59.541Z,73.25
2022-08-05T18:20:31.994Z,75.18
2022-08-05T18:23:00.649Z,73.59
2022-08-05T18:25:39.219Z,74.69
2022-08-05T18:28:07.004Z,78.28
2022-08-05T18:30:34.402Z,82.95
2022-08-05T18:33:01.638Z,84.44
2022-08-05T18:36:00.753Z,83.01
2022-08-05T18:38:19.215Z,83.91
2022-08-05T18:41:53.268Z,80.89
2022-08-05T18:43:43.024Z,76.56
2022-08-05T18:46:15.342Z,75.89
2022-08-05T18:48:42.123Z,74.27
2022-08-05T18:52:03.053Z,73.96
2022-08-05T18:54:14.646Z,77.47
2022-08-05T18:56:41.828Z,77.45
2022-08-05T18:59:43.440Z,76.46
2022-08-05T19:02:11.061Z,75.01
2022-08-05T19:05:00.996Z,77.48
2022-08-05T19:07:30.226Z,81.87
2022-08-05T19:10:13.747Z,84.44
2022-08-05T19:12:40.450Z,87.68
2022-08-05T19:15:25.049Z,91.57
2022-08-05T19:18:08.718Z,93.82
2022-08-05T19:20:36.716Z,95.41
2022-08-05T19:23:03.377Z,98.42
2022-08-05T19:25:41.992Z,97.06
2022-08-05T19:28:10.475Z,97.32
2022-08-05T19:30:37.042Z,96.92
2022-08-05T19:33:05.057Z,95.93
2022-08-05T19:35:56.319Z,94.06
2022-08-05T19:38:26.503Z,93.95
2022-08-05T19:40:53.597Z,99.30
2022-08-05T19:44:04.239Z,98.75
2022-08-05T19:46:16.867Z,100.00
2022-08-05T19:48:53.710Z,100.00
2022-08-05T19:52:06.011Z,100.00
2022-08-05T19:54:25.500Z,100.00
2022-08-05T19:56:56.214Z,100.00
2022-08-05T19:59:55.306Z,100.00
2022-08-05T20:02:09.496Z,100.00
2022-08-05T20:04:38.038Z,100.00
2022-08-05T20:07:13.274Z,100.00
2022-08-05T20:09:54.673Z,100.00
2022-08-05T20:12:23.600Z,100.00
2022-08-05T20:14:52.330Z,100.00
2022-08-05T20:17:23.738Z,100.00
2022-08-05T20:19:56.971Z,100.00
2022-08-05T20:22:27.302Z,100.00
2022-08-05T20:24:55.580Z,100.00
2022-08-05T20:27:26.961Z,100.00
2022-08-05T20:29:58.427Z,100.00
2022-08-05T20:32:27.074Z,100.00
2022-08-05T20:34:54.232Z,100.00
2022-08-05T20:38:04.540Z,100.00
2022-08-05T20:40:08.459Z,100.00
2022-08-05T20:42:35.527Z,100.00
2022-08-05T20:45:02.732Z,100.00
2022-08-05T20:47:32.073Z,100.00
2022-08-05T20:49:59.700Z,100.00
2022-08-05T20:52:28.873Z,100.00
2022-08-05T20:55:15.834Z,100.00
2022-08-05T20:57:44.285Z,100.00
2022-08-05T21:00:40.962Z,100.00
2022-08-05T21:03:06.028Z,100.00
2022-08-05T21:05:47.756Z,100.00
2022-08-05T21:08:21.296Z,100.00
2022-08-05T21:11:00.203Z,100.00
2022-08-05T21:13:55.574Z,100.00
2022-08-05T21:16:13.971Z,100.00
2022-08-05T21:18:43.016Z,100.00
2022-08-05T21:21:12.254Z,100.00
2022-08-05T21:23:39.112Z,100.00
2022-08-05T21:26:08.230Z,100.00
2022-08-05T21:28:40.494Z,100.00
2022-08-05T21:31:17.475Z,100.00
2022-08-05T21:33:47.845Z,100.00
2022-08-05T21:36:27.789Z,100.00
2022-08-05T21:38:57.004Z,100.00
2022-08-05T21:41:25.992Z,100.00
2022-08-05T21:44:03.606Z,100.00
2022-08-05T21:46:34.468Z,100.00
2022-08-05T21:49:07.156Z,100.00
2022-08-05T21:52:21.359Z,100.00
2022-08-05T21:54:30.813Z,100.00
2022-08-05T21:57:28.351Z,100.00
2022-08-05T22:00:02.130Z,100.00
2022-08-05T22:02:39.277Z,100.00
2022-08-05T22:05:08.893Z,100.00
2022-08-05T22:07:39.463Z,100.00
2022-08-05T22:10:26.680Z,100.00
2022-08-05T22:12:59.190Z,100.00
2022-08-05T22:16:02.491Z,100.00
2022-08-05T22:18:25.600Z,100.00
2022-08-05T22:20:52.785Z,100.00
2022-08-05T22:24:02.452Z,100.00
2022-08-05T22:26:49.781Z,100.00
2022-08-05T22:29:17.464Z,100.00
2022-08-05T22:31:45.762Z,100.00
2022-08-05T22:34:28.637Z,100.00
2022-08-05T22:36:56.741Z,100.00
2022-08-05T22:39:29.798Z,100.00
2022-08-05T22:42:09.401Z,100.00
2022-08-05T22:44:40.117Z,100.00
2022-08-05T22:47:06.963Z,100.00
2022-08-05T22:50:20.285Z,100.00
2022-08-05T22:52:30.671Z,100.00
2022-08-05T22:55:01.766Z,100.00
2022-08-05T22:57:36.296Z,100.00
2022-08-05T23:00:06.130Z,100.00
2022-08-05T23:02:35.593Z,100.00
2022-08-05T23:05:13.482Z,100.00
2022-08-05T23:07:45.273Z,100.00
2022-08-05T23:10:16.388Z,100.00
2022-08-05T23:12:47.737Z,100.00
2022-08-05T23:15:18.716Z,100.00
2022-08-05T23:18:02.396Z,100.00
2022-08-05T23:20:37.472Z,100.00
2022-08-05T23:23:08.440Z,100.00
2022-08-05T23:25:52.053Z,100.00
2022-08-05T23:28:22.064Z,100.00
2022-08-05T23:30:53.184Z,100.00
2022-08-05T23:33:26.223Z,100.00
2022-08-05T23:36:10.062Z,100.00
2022-08-05T23:38:37.159Z,100.00
2022-08-05T23:41:03.828Z,100.00
2022-08-05T23:44:05.317Z,100.00
2022-08-05T23:46:20.649Z,100.00
2022-08-05T23:49:00.699Z,100.00
2022-08-05T23:51:55.002Z,100.00
2022-08-05T23:54:30.387Z,100.00
2022-08-05T23:57:05.187Z,100.00
